Wetterdaten: Juli 2010
Datum Temp. A. Feuchte A. Luftdruck Regen Wind Richtung Taupunkt Windchill Windben
01.07.2010 24,5 C 62 % 1014,5 hPa 0,0 l/m 2,6 km/h O-NO 16,0 C 24,5 C 1,5 km/h
02.07.2010 24,7 C 60 % 1013,7 hPa 0,0 l/m 0,6 km/h O-NO 15,2 C 24,7 C 0,3 km/h
03.07.2010 25,5 C 65 % 1015,7 hPa 0,0 l/m 1,6 km/h S-SO 18,0 C 25,5 C 0,9 km/h
04.07.2010 24,1 C 74 % 1018,3 hPa 8,9 l/m 1,8 km/h S-SO 18,5 C 24,1 C 1,0 km/h
05.07.2010 23,0 C 58 % 1018,5 hPa 0,0 l/m 0,8 km/h N-NO 13,3 C 23,0 C 0,4 km/h
06.07.2010 20,7 C 61 % 1020,9 hPa 0,0 l/m 0,0 km/h N-NO 12,2 C 20,7 C 0,0 km/h
07.07.2010 21,0 C 59 % 1019,3 hPa 0,0 l/m 0,0 km/h O-NO 11,9 C 21,0 C 0,0 km/h
08.07.2010 24,4 C 57 % 1017,8 hPa 0,0 l/m 0,3 km/h NO 14,2 C 24,4 C 0,2 km/h
09.07.2010 26,0 C 59 % 1017,6 hPa 0,0 l/m 1,3 km/h N-NO 16,4 C 26,0 C 0,7 km/h
10.07.2010 28,9 C 56 % 1016,2 hPa 10,7 l/m 2,0 km/h NW 18,5 C 28,9 C 1,1 km/h
11.07.2010 26,6 C 68 % 1015,8 hPa 0,4 l/m 0,8 km/h SO 19,5 C 26,6 C 0,4 km/h
12.07.2010 23,3 C 73 % 1012,6 hPa 4,3 l/m 0,6 km/h S-SO 16,8 C 23,3 C 0,3 km/h
13.07.2010 23,7 C 68 % 1011,0 hPa 1,1 l/m 1,0 km/h SO 16,9 C 23,7 C 0,6 km/h
14.07.2010 25,6 C 64 % 1007,8 hPa 0,0 l/m 0,8 km/h W-SW 17,5 C 25,6 C 0,4 km/h
15.07.2010 22,3 C 65 % 1014,5 hPa 1,4 l/m 5,0 km/h SW 14,6 C 22,0 C 2,8 km/h
16.07.2010 24,7 C 59 % 1014,3 hPa 0,0 l/m 5,7 km/h N-NO 15,2 C 24,5 C 3,2 km/h
17.07.2010 18,1 C 84 % 1020,3 hPa 1,8 l/m 0,6 km/h SO 15,3 C 18,1 C 0,3 km/h
18.07.2010 20,1 C 61 % 1022,6 hPa 0,0 l/m 4,4 km/h O-SO 11,5 C 19,8 C 2,4 km/h
19.07.2010 22,7 C 52 % 1018,0 hPa 0,0 l/m 0,5 km/h N 10,8 C 22,7 C 0,3 km/h
20.07.2010 23,5 C 59 % 1010,9 hPa 0,0 l/m 0,0 km/h NO 14,4 C 23,5 C 0,0 km/h
21.07.2010 26,0 C 55 % 1008,9 hPa 0,0 l/m 0,0 km/h NO 15,2 C 26,0 C 0,0 km/h
22.07.2010 19,9 C 87 % 1013,8 hPa 4,6 l/m 0,0 km/h SO 17,6 C 19,9 C 0,0 km/h
23.07.2010 15,6 C 92 % 1017,0 hPa 5,3 l/m 1,8 km/h SO 14,3 C 15,6 C 1,0 km/h
24.07.2010 16,1 C 85 % 1019,5 hPa 3,6 l/m 3,3 km/h SO 13,4 C 15,6 C 1,8 km/h
25.07.2010 17,4 C 69 % 1015,7 hPa 0,0 l/m 0,0 km/h N-NO 10,8 C 17,4 C 0,0 km/h
26.07.2010 17,5 C 81 % 1012,9 hPa 8,2 l/m 2,0 km/h SO 13,8 C 17,4 C 1,1 km/h
27.07.2010 18,5 C 72 % 1016,9 hPa 0,0 l/m 0,5 km/h N-NO 12,9 C 18,5 C 0,3 km/h
28.07.2010 18,3 C 81 % 1015,2 hPa 1,8 l/m 4,2 km/h NO 14,9 C 17,4 C 2,3 km/h
29.07.2010 16,4 C 82 % 1011,7 hPa 5,3 l/m 0,5 km/h SO 12,9 C 16,4 C 0,3 km/h
30.07.2010 17,0 C 75 % 1014,6 hPa 0,7 l/m 1,3 km/h O-NO 12,1 C 17,0 C 0,7 km/h
31.07.2010 18,9 C 64 % 1014,9 hPa 0,0 l/m 6,5 km/h N-NO 11,1 C 18,5 C 3,6 km/h
Min-Datum 25.07.10 16.07.10 14.07.10 14 Tage 01.07.10 - 25.07.10 25.07.10 01.07.10
Min-Zeit 06:30 17:30 17:30 - 00:30 - 06:30 06:30 00:30
Minimum 9,0 C 19 % 1003,2 hPa - 0,0 km/h - 8,1 C 9,0 C 0,0 km/h
Max-Datum 14.07.10 18.07.10 18.07.10 10.07.10 21.07.10 - 11.07.10 14.07.10 21.07.10
Max-Zeit 17:30 07:30 09:30 22:30 13:30 - 09:30 17:30 13:30
Maximum 42,4 C 94 % 1025,1 hPa 10,7 l/m 28,5 km/h
NO
- 21,6 C 42,4 C 15,8 km/h
NO
Durchschnitt 21,8 C 68 % 1015,5 hPa #58,0 l/m 1,6 km/h SO 14,7 C 21,7 C 0,9 km/h

Durchschnitt Minimum Temp.14,6 C
Durchschnitt Maximum Temp.33,4 C